RYR4436 EBOS-EBCI
Flight info
| Callsign | RYR4436 |
|---|---|
| Flight time | N/A |
| Altitude | 13000 |
| Route | FERDI DCT CIV |
| Aircraft | B738/M-SDE2E3FGHIRWXY/LB1 |
Departure
| Time | 2026-04-25 10:13 |
|---|---|
| Airport | Ostend-Bruges International Airport (EBOS) |
Arrival
| Time | N/A |
|---|---|
| Airport | Brussels South Charleroi Airport (EBCI) |
| Time | Latitude | Longitude | Altitude | Speed | Heading |
|---|---|---|---|---|---|
| 2026-04-25 09:46 | 51.20156 | 2.86814 | 23 ft | 0 kts | 166° |
| 2026-04-25 10:05 | 51.20169 | 2.86808 | 22 ft | 4 kts | 158° |
| 2026-04-25 10:06 | 51.20194 | 2.86797 | 24 ft | 4 kts | 172° |
| 2026-04-25 10:06 | 51.20221 | 2.86794 | 26 ft | 4 kts | 180° |
| 2026-04-25 10:06 | 51.20233 | 2.86794 | 25 ft | 1 kts | 180° |
| 2026-04-25 10:06 | 51.20234 | 2.86794 | 25 ft | 0 kts | 180° |
| 2026-04-25 10:12 | 51.20192 | 2.86750 | 23 ft | 21 kts | 216° |
| 2026-04-25 10:12 | 51.19907 | 2.86683 | 22 ft | 21 kts | 144° |
| 2026-04-25 10:13 | 51.19917 | 2.86987 | 22 ft | 55 kts | 74° |
| 2026-04-25 10:13 | 51.20086 | 2.88107 | 29 ft | 148 kts | 74° |
| 2026-04-25 10:13 | 51.20337 | 2.89835 | 742 ft | 166 kts | 74° |
| 2026-04-25 10:13 | 51.20678 | 2.91635 | 1601 ft | 189 kts | 72° |
| 2026-04-25 10:14 | 51.20893 | 2.93645 | 2870 ft | 176 kts | 87° |
| 2026-04-25 10:14 | 51.21054 | 2.95487 | 4197 ft | 160 kts | 72° |
| 2026-04-25 10:14 | 51.21381 | 2.97284 | 4903 ft | 171 kts | 73° |
| 2026-04-25 10:14 | 51.21682 | 2.99121 | 5721 ft | 172 kts | 74° |
| 2026-04-25 10:15 | 51.21980 | 3.00973 | 6519 ft | 172 kts | 72° |
| 2026-04-25 10:15 | 51.22026 | 3.02840 | 7215 ft | 175 kts | 112° |
| 2026-04-25 10:15 | 51.21350 | 3.04356 | 8010 ft | 163 kts | 129° |
| 2026-04-25 10:15 | 51.20609 | 3.05816 | 8526 ft | 175 kts | 129° |
| 2026-04-25 10:16 | 51.19827 | 3.07357 | 9081 ft | 183 kts | 129° |
| 2026-04-25 10:16 | 51.19007 | 3.08971 | 9626 ft | 191 kts | 129° |
| 2026-04-25 10:16 | 51.18158 | 3.10647 | 10167 ft | 197 kts | 129° |
| 2026-04-25 10:16 | 51.17282 | 3.12382 | 10670 ft | 204 kts | 129° |
| 2026-04-25 10:17 | 51.16379 | 3.14172 | 11185 ft | 209 kts | 129° |
| 2026-04-25 10:17 | 51.15460 | 3.15995 | 11674 ft | 212 kts | 129° |
| 2026-04-25 10:17 | 51.14538 | 3.17826 | 12163 ft | 214 kts | 129° |
| 2026-04-25 10:17 | 51.13562 | 3.19763 | 12212 ft | 238 kts | 129° |
| 2026-04-25 10:18 | 51.12481 | 3.21907 | 12265 ft | 259 kts | 129° |
| 2026-04-25 10:18 | 51.11321 | 3.24209 | 12244 ft | 270 kts | 129° |
| 2026-04-25 10:18 | 51.10144 | 3.26547 | 12236 ft | 272 kts | 129° |
| 2026-04-25 10:18 | 51.08964 | 3.28889 | 12233 ft | 270 kts | 129° |
| 2026-04-25 10:19 | 51.07786 | 3.31222 | 12230 ft | 270 kts | 129° |
| 2026-04-25 10:19 | 51.06611 | 3.33549 | 12229 ft | 270 kts | 129° |
| 2026-04-25 10:19 | 51.05431 | 3.35884 | 12228 ft | 271 kts | 129° |
| 2026-04-25 10:19 | 51.04250 | 3.38218 | 12223 ft | 271 kts | 129° |
| 2026-04-25 10:20 | 51.03067 | 3.40556 | 12222 ft | 272 kts | 129° |
| 2026-04-25 10:20 | 51.01881 | 3.42898 | 12216 ft | 272 kts | 129° |
| 2026-04-25 10:20 | 51.00695 | 3.45236 | 12212 ft | 272 kts | 129° |
| 2026-04-25 10:20 | 50.99509 | 3.47573 | 12208 ft | 272 kts | 129° |
| 2026-04-25 10:21 | 50.98322 | 3.49912 | 12213 ft | 272 kts | 129° |
| 2026-04-25 10:21 | 50.97133 | 3.52251 | 12213 ft | 272 kts | 129° |
| 2026-04-25 10:21 | 50.95948 | 3.54582 | 12211 ft | 272 kts | 129° |
| 2026-04-25 10:21 | 50.94761 | 3.56914 | 12213 ft | 272 kts | 129° |
| 2026-04-25 10:22 | 50.93571 | 3.59247 | 12208 ft | 272 kts | 129° |
| 2026-04-25 10:22 | 50.92398 | 3.61545 | 12210 ft | 272 kts | 129° |
| 2026-04-25 10:22 | 50.91091 | 3.63692 | 12177 ft | 272 kts | 148° |
| 2026-04-25 10:22 | 50.89370 | 3.64910 | 12244 ft | 267 kts | 161° |
| 2026-04-25 10:23 | 50.87613 | 3.65925 | 12222 ft | 269 kts | 162° |
| 2026-04-25 10:23 | 50.85871 | 3.66914 | 12216 ft | 270 kts | 162° |
| 2026-04-25 10:23 | 50.84081 | 3.67933 | 12218 ft | 270 kts | 161° |
| 2026-04-25 10:23 | 50.82311 | 3.68946 | 12214 ft | 271 kts | 161° |
| 2026-04-25 10:24 | 50.80544 | 3.69961 | 12208 ft | 270 kts | 161° |
| 2026-04-25 10:24 | 50.78801 | 3.70965 | 12076 ft | 270 kts | 161° |
| 2026-04-25 10:24 | 50.76994 | 3.72007 | 11285 ft | 280 kts | 161° |
| 2026-04-25 10:24 | 50.75170 | 3.73061 | 10595 ft | 279 kts | 161° |
| 2026-04-25 10:25 | 50.73354 | 3.74110 | 9893 ft | 278 kts | 161° |
| 2026-04-25 10:25 | 50.71542 | 3.75156 | 9142 ft | 277 kts | 161° |
| 2026-04-25 10:25 | 50.69740 | 3.76197 | 8390 ft | 275 kts | 161° |
| 2026-04-25 10:25 | 50.67948 | 3.77231 | 7674 ft | 273 kts | 161° |
| 2026-04-25 10:26 | 50.66167 | 3.78258 | 6971 ft | 271 kts | 160° |
| 2026-04-25 10:26 | 50.64406 | 3.79271 | 6244 ft | 268 kts | 160° |
| 2026-04-25 10:26 | 50.62659 | 3.80276 | 5500 ft | 266 kts | 160° |
| 2026-04-25 10:26 | 50.60933 | 3.81274 | 4798 ft | 263 kts | 157° |
| 2026-04-25 10:27 | 50.59496 | 3.82857 | 4437 ft | 245 kts | 127° |
| 2026-04-25 10:27 | 50.58797 | 3.85170 | 4343 ft | 232 kts | 102° |
| 2026-04-25 10:27 | 50.58700 | 3.87685 | 4236 ft | 229 kts | 81° |
| 2026-04-25 10:27 | 50.59143 | 3.90091 | 4222 ft | 229 kts | 68° |
| 2026-04-25 10:28 | 50.59739 | 3.92392 | 4208 ft | 226 kts | 66° |
| 2026-04-25 10:28 | 50.60353 | 3.94672 | 4209 ft | 226 kts | 66° |
| 2026-04-25 10:28 | 50.60968 | 3.96951 | 4208 ft | 227 kts | 66° |
| 2026-04-25 10:28 | 50.61581 | 3.99247 | 4201 ft | 228 kts | 65° |
| 2026-04-25 10:29 | 50.62193 | 4.01549 | 4206 ft | 228 kts | 66° |
| 2026-04-25 10:29 | 50.62793 | 4.03818 | 4203 ft | 227 kts | 66° |
| 2026-04-25 10:29 | 50.63398 | 4.06116 | 4200 ft | 227 kts | 66° |
| 2026-04-25 10:29 | 50.64001 | 4.08412 | 4199 ft | 227 kts | 66° |
| 2026-04-25 10:30 | 50.64604 | 4.10710 | 4199 ft | 227 kts | 66° |
| 2026-04-25 10:30 | 50.65009 | 4.12261 | 4206 ft | 226 kts | 66° |
| 2026-04-25 10:30 | 50.65801 | 4.15292 | 4226 ft | 226 kts | 66° |
| 2026-04-25 10:30 | 50.66399 | 4.17582 | 4226 ft | 227 kts | 66° |
| 2026-04-25 10:31 | 50.66999 | 4.19889 | 4235 ft | 227 kts | 66° |
| 2026-04-25 10:31 | 50.67551 | 4.22214 | 4217 ft | 228 kts | 77° |
| 2026-04-25 10:31 | 50.67329 | 4.24657 | 4252 ft | 229 kts | 114° |
| 2026-04-25 10:31 | 50.66581 | 4.26881 | 4243 ft | 231 kts | 117° |
| 2026-04-25 10:32 | 50.65818 | 4.29117 | 4241 ft | 232 kts | 117° |
| 2026-04-25 10:32 | 50.65060 | 4.31362 | 4249 ft | 233 kts | 116° |
| 2026-04-25 10:32 | 50.64307 | 4.33620 | 4237 ft | 233 kts | 116° |
| 2026-04-25 10:32 | 50.63558 | 4.35883 | 4236 ft | 232 kts | 116° |
| 2026-04-25 10:33 | 50.62818 | 4.38143 | 4226 ft | 233 kts | 116° |
| 2026-04-25 10:33 | 50.62085 | 4.40407 | 4238 ft | 232 kts | 115° |
| 2026-04-25 10:33 | 50.61349 | 4.42669 | 4245 ft | 232 kts | 116° |
| 2026-04-25 10:33 | 50.60615 | 4.44929 | 4226 ft | 232 kts | 116° |
| 2026-04-25 10:34 | 50.59885 | 4.47183 | 4251 ft | 231 kts | 116° |
| 2026-04-25 10:34 | 50.59152 | 4.49442 | 4250 ft | 231 kts | 115° |
| 2026-04-25 10:34 | 50.58417 | 4.51713 | 4256 ft | 233 kts | 115° |
| 2026-04-25 10:34 | 50.57681 | 4.53994 | 4229 ft | 232 kts | 115° |
| 2026-04-25 10:35 | 50.56948 | 4.56239 | 4258 ft | 231 kts | 117° |
| 2026-04-25 10:35 | 50.56190 | 4.58488 | 4225 ft | 233 kts | 115° |
| 2026-04-25 10:35 | 50.55456 | 4.60764 | 4128 ft | 238 kts | 115° |
| 2026-04-25 10:35 | 50.54698 | 4.63123 | 3547 ft | 242 kts | 116° |
| 2026-04-25 10:36 | 50.53737 | 4.65242 | 3057 ft | 238 kts | 142° |
| 2026-04-25 10:36 | 50.52305 | 4.65917 | 3015 ft | 200 kts | 184° |
| 2026-04-25 10:36 | 50.51260 | 4.64966 | 2998 ft | 161 kts | 239° |
| 2026-04-25 10:36 | 50.50952 | 4.63450 | 3004 ft | 141 kts | 254° |
| 2026-04-25 10:37 | 50.50594 | 4.61894 | 2686 ft | 157 kts | 250° |
| 2026-04-25 10:37 | 50.50204 | 4.60319 | 2392 ft | 148 kts | 248° |
| 2026-04-25 10:37 | 50.49830 | 4.58872 | 2216 ft | 140 kts | 248° |
| 2026-04-25 10:37 | 50.49439 | 4.57411 | 2086 ft | 152 kts | 246° |
| 2026-04-25 10:38 | 50.49015 | 4.55897 | 1839 ft | 149 kts | 244° |
| 2026-04-25 10:38 | 50.48586 | 4.54453 | 1623 ft | 142 kts | 247° |
| 2026-04-25 10:38 | 50.48198 | 4.53039 | 1447 ft | 143 kts | 249° |
| 2026-04-25 10:38 | 50.47811 | 4.51597 | 1243 ft | 143 kts | 247° |
| 2026-04-25 10:39 | 50.47398 | 4.50197 | 1003 ft | 139 kts | 246° |
| 2026-04-25 10:39 | 50.47014 | 4.48817 | 824 ft | 138 kts | 246° |
| 2026-04-25 10:39 | 50.46608 | 4.47445 | 674 ft | 138 kts | 248° |
| 2026-04-25 10:39 | 50.46222 | 4.46096 | 623 ft | 127 kts | 245° |
| 2026-04-25 10:40 | 50.45792 | 4.44635 | 1079 ft | 155 kts | 247° |
| 2026-04-25 10:40 | 50.45311 | 4.42911 | 1764 ft | 196 kts | 247° |
| 2026-04-25 10:40 | 50.44734 | 4.40752 | 2142 ft | 227 kts | 247° |
| 2026-04-25 10:40 | 50.44364 | 4.39246 | 2370 ft | 217 kts | 256° |
| 2026-04-25 10:41 | 50.44777 | 4.36594 | 2748 ft | 174 kts | 321° |
| 2026-04-25 10:41 | 50.45725 | 4.35503 | 2979 ft | 172 kts | 330° |
| 2026-04-25 10:41 | 50.46842 | 4.34947 | 2992 ft | 164 kts | 358° |
| 2026-04-25 10:41 | 50.47976 | 4.35151 | 2954 ft | 165 kts | 20° |
| 2026-04-25 10:42 | 50.48958 | 4.36000 | 2983 ft | 163 kts | 41° |
| 2026-04-25 10:42 | 50.49623 | 4.37339 | 2953 ft | 152 kts | 79° |
| 2026-04-25 10:42 | 50.49301 | 4.38895 | 3005 ft | 171 kts | 136° |
| 2026-04-25 10:42 | 50.48354 | 4.40037 | 2981 ft | 170 kts | 126° |
| 2026-04-25 10:43 | 50.47951 | 4.41692 | 3024 ft | 161 kts | 102° |
| 2026-04-25 10:43 | 50.47675 | 4.43413 | 3018 ft | 163 kts | 103° |
| 2026-04-25 10:43 | 50.47397 | 4.45168 | 3059 ft | 169 kts | 103° |
| 2026-04-25 10:43 | 50.47109 | 4.46955 | 3041 ft | 165 kts | 102° |
| 2026-04-25 10:44 | 50.46818 | 4.48710 | 3008 ft | 166 kts | 102° |
| 2026-04-25 10:44 | 50.46534 | 4.50456 | 2981 ft | 162 kts | 102° |
| 2026-04-25 10:44 | 50.46264 | 4.52153 | 2951 ft | 159 kts | 101° |
| 2026-04-25 10:44 | 50.45998 | 4.53834 | 3024 ft | 165 kts | 102° |
| 2026-04-25 10:45 | 50.45725 | 4.55615 | 2972 ft | 166 kts | 102° |
| 2026-04-25 10:45 | 50.45439 | 4.57329 | 3003 ft | 161 kts | 98° |
| 2026-04-25 10:45 | 50.45571 | 4.59016 | 3016 ft | 157 kts | 71° |
| 2026-04-25 10:45 | 50.45937 | 4.60658 | 3010 ft | 164 kts | 68° |
| 2026-04-25 10:46 | 50.46342 | 4.62339 | 3018 ft | 165 kts | 68° |
| 2026-04-25 10:46 | 50.46761 | 4.64048 | 2976 ft | 166 kts | 68° |
| 2026-04-25 10:46 | 50.47171 | 4.65663 | 3002 ft | 161 kts | 67° |
| 2026-04-25 10:46 | 50.47569 | 4.67311 | 3018 ft | 160 kts | 67° |
| 2026-04-25 10:47 | 50.47972 | 4.68924 | 2977 ft | 160 kts | 67° |
| 2026-04-25 10:47 | 50.48398 | 4.70563 | 2980 ft | 164 kts | 68° |
| 2026-04-25 10:47 | 50.48810 | 4.72209 | 2970 ft | 160 kts | 68° |
| 2026-04-25 10:47 | 50.49207 | 4.73822 | 3006 ft | 158 kts | 68° |
| 2026-04-25 10:48 | 50.49611 | 4.75450 | 3004 ft | 160 kts | 67° |
| 2026-04-25 10:48 | 50.50029 | 4.77114 | 2947 ft | 164 kts | 68° |
| 2026-04-25 10:48 | 50.50262 | 4.78820 | 2932 ft | 164 kts | 103° |
| 2026-04-25 10:48 | 50.49633 | 4.80246 | 2980 ft | 167 kts | 148° |
| 2026-04-25 10:49 | 50.48483 | 4.80587 | 3006 ft | 178 kts | 192° |
| 2026-04-25 10:49 | 50.47728 | 4.80037 | 2976 ft | 178 kts | 222° |
| 2026-04-25 10:49 | 50.47309 | 4.77853 | 2991 ft | 160 kts | 294° |
| 2026-04-25 10:49 | 50.47997 | 4.76363 | 2958 ft | 178 kts | 315° |
| 2026-04-25 10:50 | 50.48824 | 4.74994 | 2966 ft | 169 kts | 317° |
| 2026-04-25 10:50 | 50.49616 | 4.73706 | 3012 ft | 153 kts | 318° |
| 2026-04-25 10:50 | 50.50342 | 4.72620 | 2983 ft | 140 kts | 321° |
| 2026-04-25 10:50 | 50.51069 | 4.71619 | 2986 ft | 142 kts | 320° |
| 2026-04-25 10:51 | 50.51565 | 4.70314 | 2994 ft | 141 kts | 291° |
| 2026-04-25 10:51 | 50.51762 | 4.69327 | 2993 ft | 144 kts | 285° |
| 2026-04-25 10:51 | 50.51948 | 4.67751 | 2987 ft | 147 kts | 277° |
| 2026-04-25 10:51 | 50.51928 | 4.66177 | 2990 ft | 146 kts | 262° |
| 2026-04-25 10:52 | 50.51506 | 4.64772 | 3024 ft | 146 kts | 243° |
| 2026-04-25 10:52 | 50.51086 | 4.63272 | 2828 ft | 149 kts | 252° |
| 2026-04-25 10:52 | 50.50709 | 4.61727 | 2621 ft | 155 kts | 247° |
| 2026-04-25 10:52 | 50.50295 | 4.60216 | 2408 ft | 145 kts | 249° |
| 2026-04-25 10:53 | 50.49844 | 4.58820 | 2214 ft | 144 kts | 235° |
| 2026-04-25 10:53 | 50.49458 | 4.57378 | 2086 ft | 146 kts | 255° |
| 2026-04-25 10:53 | 50.49095 | 4.55878 | 1855 ft | 146 kts | 244° |
| 2026-04-25 10:53 | 50.48675 | 4.54446 | 1631 ft | 142 kts | 244° |
| 2026-04-25 10:54 | 50.48239 | 4.53059 | 1424 ft | 141 kts | 245° |
| 2026-04-25 10:54 | 50.47821 | 4.51654 | 1280 ft | 143 kts | 246° |
| 2026-04-25 10:54 | 50.47423 | 4.50236 | 1049 ft | 141 kts | 248° |
| 2026-04-25 10:54 | 50.47024 | 4.48859 | 852 ft | 136 kts | 245° |
| 2026-04-25 10:55 | 50.46627 | 4.47501 | 702 ft | 138 kts | 246° |
| 2026-04-25 10:55 | 50.46238 | 4.46157 | 616 ft | 124 kts | 247° |